Time;durP1;ratioP1;P1;durP2;ratioP2;P2;SDS_P1;SDS_P2;PMS_P1;PMS_P2;Temp;Humidity;BMP_temperature;BMP_pressure;BME280_temperature;BME280_humidity;BME280_pressure;Samples;Min_cycle;Max_cycle;Signal;HPM_P1;HPM_P2
2021/12/10 00:01:31;;;;;;;;;;;;;;;4.87;100.00;92142.00;5067475;28;19939;-86
2021/12/10 00:03:58;;;;;;;;;;;;;;;4.91;100.00;92146.47;5067452;28;19924;-86
2021/12/10 00:06:28;;;;;;;;;;;;;;;4.95;100.00;92137.47;5067123;28;19947;-87
2021/12/10 00:08:56;;;;;;;;;;;;;;;4.94;100.00;92138.44;5067326;28;19931;-85
2021/12/10 00:11:25;;;;;;;;;;;;;;;4.98;100.00;92135.47;5067145;28;19947;-86
2021/12/10 00:13:53;;;;;;;;;;;;;;;4.97;100.00;92128.84;5067095;28;19939;-86
2021/12/10 00:16:20;;;;;;;;;;;;;;;5.05;100.00;92133.72;5066582;28;19929;-86
2021/12/10 00:18:52;;;;;;;;;;;;;;;5.08;100.00;92135.84;5066106;28;19932;-86
2021/12/10 00:21:19;;;;;;;;;;;;;;;5.08;100.00;92128.22;5067193;28;19958;-85
2021/12/10 00:23:49;;;;;;;;;;;;;;;5.10;100.00;92128.81;5067149;28;19940;-85
2021/12/10 00:26:16;;;;;;;;;;;;;;;5.10;100.00;92131.34;5066592;28;19934;-85
2021/12/10 00:28:43;;;;;;;;;;;;;;;5.17;100.00;92127.00;5067047;28;19924;-85
2021/12/10 00:31:19;;;;;;;;;;;;;;;5.19;100.00;92134.44;5066901;28;19935;-85
2021/12/10 00:33:50;;;;;;;;;;;;;;;5.22;100.00;92128.94;5066737;28;20399;-85
2021/12/10 00:36:17;;;;;;;;;;;;;;;5.22;100.00;92131.47;5066985;28;19932;-85
2021/12/10 00:38:43;;;;;;;;;;;;;;;5.18;100.00;92140.50;5066918;28;20319;-85
2021/12/10 00:41:11;;;;;;;;;;;;;;;5.22;100.00;92136.56;5066845;28;19989;-85
2021/12/10 00:43:38;;;;;;;;;;;;;;;5.28;100.00;92137.53;5066665;28;19924;-85
2021/12/10 00:46:04;;;;;;;;;;;;;;;5.22;100.00;92128.94;5066397;28;20437;-84
2021/12/10 00:48:33;;;;;;;;;;;;;;;5.26;100.00;92126.75;5066365;28;19925;-85
2021/12/10 00:51:00;;;;;;;;;;;;;;;5.30;100.00;92122.81;5066275;28;20387;-84
2021/12/10 00:53:26;;;;;;;;;;;;;;;5.34;100.00;92126.53;5066907;28;19928;-84
2021/12/10 00:55:53;;;;;;;;;;;;;;;5.32;100.00;92123.41;5066447;28;19925;-84
2021/12/10 00:58:20;;;;;;;;;;;;;;;5.36;100.00;92124.53;5066456;28;19932;-84
2021/12/10 01:00:48;;;;;;;;;;;;;;;5.38;100.00;92127.69;5066627;28;19932;-84
2021/12/10 01:03:18;;;;;;;;;;;;;;;5.41;100.00;92134.91;5066214;28;19925;-84
2021/12/10 01:05:49;;;;;;;;;;;;;;;5.38;100.00;92132.78;5066307;28;20656;-84
2021/12/10 01:08:16;;;;;;;;;;;;;;;5.37;100.00;92121.00;5066220;28;19929;-85
2021/12/10 01:10:45;;;;;;;;;;;;;;;5.38;100.00;92130.22;5066071;28;19955;-84
2021/12/10 01:13:15;;;;;;;;;;;;;;;5.37;100.00;92131.19;5065822;28;19936;-84
2021/12/10 01:15:54;;;;;;;;;;;;;;;5.35;100.00;92144.16;5065600;28;19939;-84
2021/12/10 01:23:58;;;;;;;;;;;;;;;5.33;100.00;92137.69;5065960;28;19939;-83
2021/12/10 01:26:51;;;;;;;;;;;;;;;5.32;100.00;92129.28;5065681;28;19932;-83
2021/12/10 01:29:19;;;;;;;;;;;;;;;5.30;100.00;92126.16;5065609;28;19932;-83
2021/12/10 01:31:46;;;;;;;;;;;;;;;5.32;100.00;92115.78;5065972;28;19932;-84
2021/12/10 01:34:13;;;;;;;;;;;;;;;5.36;100.00;92109.28;5066009;28;20326;-83
2021/12/10 01:36:41;;;;;;;;;;;;;;;5.40;100.00;92100.25;5065642;28;19990;-83
2021/12/10 01:39:09;;;;;;;;;;;;;;;5.42;100.00;92105.91;5065436;28;19931;-83
2021/12/10 01:41:39;;;;;;;;;;;;;;;5.41;100.00;92091.59;5065685;28;19925;-83
2021/12/10 01:44:15;;;;;;;;;;;;;;;5.40;100.00;92090.06;5065848;28;19932;-83
2021/12/10 01:46:42;;;;;;;;;;;;;;;5.37;100.00;92100.63;5065650;28;19932;-83
2021/12/10 01:49:10;;;;;;;;;;;;;;;5.35;100.00;92092.44;5065616;28;20295;-83
2021/12/10 01:51:38;;;;;;;;;;;;;;;5.32;100.00;92085.22;5065749;28;19939;-83
2021/12/10 01:54:08;;;;;;;;;;;;;;;5.34;100.00;92078.16;5065204;28;19933;-83
2021/12/10 01:56:35;;;;;;;;;;;;;;;5.34;100.00;92058.53;5069116;28;20376;-83
2021/12/10 01:59:04;;;;;;;;;;;;;;;5.38;100.00;92055.59;5065996;28;19925;-83
2021/12/10 02:01:32;;;;;;;;;;;;;;;5.46;100.00;92065.53;5054217;28;19924;-83
2021/12/10 02:03:59;;;;;;;;;;;;;;;5.50;100.00;92066.66;5048919;28;19938;-83
2021/12/10 02:06:26;;;;;;;;;;;;;;;5.41;100.00;92062.84;5049759;28;19948;-83
2021/12/10 02:08:53;;;;;;;;;;;;;;;5.41;100.00;92060.28;5049467;28;19948;-83
2021/12/10 02:11:21;;;;;;;;;;;;;;;5.18;100.00;92059.81;5057650;28;19947;-83
2021/12/10 02:13:48;;;;;;;;;;;;;;;5.07;100.00;92051.09;5058761;28;20384;-83
2021/12/10 02:16:15;;;;;;;;;;;;;;;5.09;100.00;92048.31;5058290;28;19928;-83
2021/12/10 02:18:42;;;;;;;;;;;;;;;5.16;100.00;92049.06;5059758;28;20388;-83
2021/12/10 02:21:17;;;;;;;;;;;;;;;5.15;100.00;92034.00;5052311;28;19932;-83
2021/12/10 02:23:45;;;;;;;;;;;;;;;5.09;100.00;92030.50;5049833;28;19936;-83
2021/12/10 02:26:14;;;;;;;;;;;;;;;5.01;100.00;92031.53;5049358;28;20384;-83
2021/12/10 02:28:41;;;;;;;;;;;;;;;5.00;100.00;92035.03;5049363;28;19932;-83
2021/12/10 02:31:08;;;;;;;;;;;;;;;4.99;100.00;92035.28;5049397;28;20336;-83
2021/12/10 02:33:35;;;;;;;;;;;;;;;5.01;100.00;92030.75;5049252;28;19928;-83
2021/12/10 02:36:02;;;;;;;;;;;;;;;5.01;100.00;92051.91;5049053;28;19932;-83
2021/12/10 02:38:30;;;;;;;;;;;;;;;5.00;100.00;92064.81;5049444;28;19936;-82
2021/12/10 02:40:57;;;;;;;;;;;;;;;4.95;100.00;92073.03;5049279;28;20311;-83
2021/12/10 02:43:24;;;;;;;;;;;;;;;4.93;100.00;92075.03;5052682;28;20319;-83
2021/12/10 02:45:52;;;;;;;;;;;;;;;4.97;100.00;92081.28;5053407;28;20042;-83
2021/12/10 02:48:19;;;;;;;;;;;;;;;4.99;100.00;92081.09;5053177;28;19929;-83
2021/12/10 02:50:46;;;;;;;;;;;;;;;5.01;100.00;92090.06;5052995;28;19925;-83
2021/12/10 02:53:16;;;;;;;;;;;;;;;5.06;100.00;92099.63;5053210;28;19924;-82
2021/12/10 02:55:44;;;;;;;;;;;;;;;5.03;100.00;92092.41;5052695;28;19929;-82
2021/12/10 02:58:12;;;;;;;;;;;;;;;5.05;100.00;92090.44;5052708;28;19928;-82
2021/12/10 03:00:41;;;;;;;;;;;;;;;5.03;100.00;92084.75;5052994;28;19936;-83
2021/12/10 03:03:08;;;;;;;;;;;;;;;5.03;100.00;92079.66;5053041;28;20285;-83
2021/12/10 03:05:34;;;;;;;;;;;;;;;5.08;100.00;92080.63;5053031;28;19925;-83
2021/12/10 03:08:01;;;;;;;;;;;;;;;5.14;100.00;92073.16;5052752;28;19928;-83
2021/12/10 03:10:29;;;;;;;;;;;;;;;5.11;100.00;92073.56;5052685;28;19925;-83
2021/12/10 03:12:57;;;;;;;;;;;;;;;5.10;100.00;92085.53;5052516;28;20384;-84
2021/12/10 03:15:25;;;;;;;;;;;;;;;5.02;100.00;92091.63;5052744;28;19924;-84
2021/12/10 03:17:52;;;;;;;;;;;;;;;4.99;100.00;92088.72;5052373;28;19932;-84
2021/12/10 03:20:20;;;;;;;;;;;;;;;4.99;100.00;92083.63;5052202;28;19929;-85
2021/12/10 03:22:47;;;;;;;;;;;;;;;5.04;100.00;92071.84;5052751;28;20011;-84
2021/12/10 03:25:15;;;;;;;;;;;;;;;5.06;100.00;92069.09;5053171;28;20011;-84
2021/12/10 03:27:42;;;;;;;;;;;;;;;5.09;100.00;92073.75;5053019;28;19931;-84
2021/12/10 03:30:11;;;;;;;;;;;;;;;5.09;100.00;92063.59;5052781;28;19928;-84
2021/12/10 03:32:39;;;;;;;;;;;;;;;5.08;100.00;92062.03;5052806;28;19932;-84
2021/12/10 03:35:09;;;;;;;;;;;;;;;5.07;100.00;92080.84;5053182;28;19924;-84
2021/12/10 03:37:36;;;;;;;;;;;;;;;5.06;100.00;92090.22;5052652;28;19936;-84
2021/12/10 03:40:04;;;;;;;;;;;;;;;5.07;100.00;92101.19;5051893;28;19994;-84
2021/12/10 03:42:30;;;;;;;;;;;;;;;5.13;100.00;92099.63;5052327;28;19931;-84
2021/12/10 03:44:57;;;;;;;;;;;;;;;5.13;100.00;92099.63;5051972;28;20482;-84
2021/12/10 03:47:25;;;;;;;;;;;;;;;5.15;100.00;92095.09;5052169;28;19925;-86
2021/12/10 03:49:52;;;;;;;;;;;;;;;5.14;100.00;92096.09;5051971;28;19925;-85
2021/12/10 03:52:19;;;;;;;;;;;;;;;5.16;100.00;92099.97;5051922;28;20006;-84
2021/12/10 03:54:46;;;;;;;;;;;;;;;5.14;100.00;92108.81;5051928;28;19931;-86
2021/12/10 03:57:13;;;;;;;;;;;;;;;5.18;100.00;92108.19;5051715;28;19939;-85
2021/12/10 03:59:40;;;;;;;;;;;;;;;5.22;100.00;92111.09;5051917;28;20376;-83
2021/12/10 04:02:08;;;;;;;;;;;;;;;5.27;100.00;92111.28;5051940;28;19932;-84
2021/12/10 04:04:38;;;;;;;;;;;;;;;5.29;100.00;92113.63;5051879;28;19925;-84
2021/12/10 04:07:07;;;;;;;;;;;;;;;5.28;100.00;92107.75;5051707;28;20368;-84
2021/12/10 04:09:34;;;;;;;;;;;;;;;5.30;100.00;92120.28;5051593;28;19925;-85
2021/12/10 04:12:01;;;;;;;;;;;;;;;5.30;100.00;92115.97;5051445;28;19936;-84
2021/12/10 04:14:28;;;;;;;;;;;;;;;5.29;100.00;92104.22;5051778;28;20292;-84
2021/12/10 04:16:56;;;;;;;;;;;;;;;5.31;100.00;92120.06;5051434;28;19929;-84
2021/12/10 04:19:23;;;;;;;;;;;;;;;5.34;100.00;92122.19;5051386;28;19929;-83
2021/12/10 04:21:55;;;;;;;;;;;;;;;5.37;100.00;92127.88;5065793;28;19925;-83
2021/12/10 04:24:24;;;;;;;;;;;;;;;5.34;100.00;92127.28;5069559;28;20387;-83
2021/12/10 04:26:51;;;;;;;;;;;;;;;5.38;100.00;92112.41;5071394;28;19970;-84
2021/12/10 04:29:20;;;;;;;;;;;;;;;5.34;100.00;92113.78;5071355;28;20677;-78
2021/12/10 04:31:46;;;;;;;;;;;;;;;5.34;100.00;92118.88;5071349;28;19928;-80
2021/12/10 04:34:13;;;;;;;;;;;;;;;5.35;100.00;92125.53;5071036;28;19924;-79
2021/12/10 04:36:40;;;;;;;;;;;;;;;5.38;100.00;92111.63;5071126;28;20330;-79
2021/12/10 04:39:08;;;;;;;;;;;;;;;5.34;100.00;92122.19;5070944;28;19924;-79
2021/12/10 04:41:35;;;;;;;;;;;;;;;5.29;100.00;92126.34;5071265;28;19932;-79
2021/12/10 04:44:01;;;;;;;;;;;;;;;5.08;100.00;92136.63;5070762;28;20388;-79
2021/12/10 04:46:28;;;;;;;;;;;;;;;5.10;100.00;92125.47;5070892;28;19971;-80
2021/12/10 04:48:57;;;;;;;;;;;;;;;5.17;100.00;92129.53;5071095;28;19925;-80
2021/12/10 04:51:25;;;;;;;;;;;;;;;5.17;100.00;92131.31;5070948;28;20456;-80
2021/12/10 04:53:52;;;;;;;;;;;;;;;5.14;100.00;92127.41;5070805;28;19928;-80
2021/12/10 04:56:20;;;;;;;;;;;;;;;5.16;100.00;92129.75;5070753;28;19934;-79
2021/12/10 04:58:47;;;;;;;;;;;;;;;5.17;100.00;92124.44;5070775;28;19970;-79
2021/12/10 05:01:14;;;;;;;;;;;;;;;5.16;100.00;92125.44;5070792;28;19947;-80
2021/12/10 05:03:41;;;;;;;;;;;;;;;5.14;100.00;92121.53;5070295;28;19935;-80
2021/12/10 05:06:08;;;;;;;;;;;;;;;5.15;100.00;92128.97;5069989;28;19932;-80
2021/12/10 05:08:36;;;;;;;;;;;;;;;5.16;100.00;92134.84;5070877;28;19932;-81
2021/12/10 05:11:04;;;;;;;;;;;;;;;5.14;100.00;92136.81;5070498;28;19974;-80
2021/12/10 05:13:32;;;;;;;;;;;;;;;5.16;100.00;92142.47;5070274;28;19928;-80
2021/12/10 05:15:59;;;;;;;;;;;;;;;5.13;100.00;92138.56;5070327;28;19929;-80
2021/12/10 05:18:27;;;;;;;;;;;;;;;5.13;100.00;92135.25;5070201;28;19925;-80
2021/12/10 05:20:54;;;;;;;;;;;;;;;5.08;100.00;92129.00;5070484;28;19925;-80
2021/12/10 05:23:20;;;;;;;;;;;;;;;5.04;100.00;92132.94;5070223;28;19932;-80
2021/12/10 05:25:47;;;;;;;;;;;;;;;4.97;100.00;92128.84;5070277;28;19924;-80
2021/12/10 05:28:14;;;;;;;;;;;;;;;4.84;100.00;92125.38;5070100;28;20425;-80
2021/12/10 05:30:42;;;;;;;;;;;;;;;4.83;100.00;92121.25;5070492;28;20341;-80
2021/12/10 05:33:15;;;;;;;;;;;;;;;4.77;100.00;92111.91;5069963;28;20395;-80
2021/12/10 05:35:42;;;;;;;;;;;;;;;4.70;100.00;92096.66;5069989;28;19928;-80
2021/12/10 05:38:08;;;;;;;;;;;;;;;4.65;100.00;92106.63;5069764;28;19924;-80
2021/12/10 05:40:35;;;;;;;;;;;;;;;4.55;100.00;92097.66;5070181;28;19929;-80
2021/12/10 05:43:01;;;;;;;;;;;;;;;4.51;100.00;92100.81;5069913;28;19924;-80
2021/12/10 05:45:28;;;;;;;;;;;;;;;4.48;100.00;92099.44;5069913;28;19944;-80
2021/12/10 05:47:56;;;;;;;;;;;;;;;4.47;100.00;92099.63;5069646;28;19925;-80
2021/12/10 05:50:24;;;;;;;;;;;;;;;4.49;100.00;92105.31;5069971;28;19924;-80
2021/12/10 05:52:50;;;;;;;;;;;;;;;4.48;100.00;92109.63;5070067;28;19924;-80
2021/12/10 05:55:17;;;;;;;;;;;;;;;4.52;100.00;92094.72;5069642;28;19932;-80
2021/12/10 05:57:44;;;;;;;;;;;;;;;4.53;100.00;92088.66;5069537;28;19928;-80
2021/12/10 06:00:13;;;;;;;;;;;;;;;4.61;100.00;92093.53;5069918;28;19928;-80
2021/12/10 06:02:40;;;;;;;;;;;;;;;4.65;100.00;92092.16;5069750;28;19973;-80
2021/12/10 06:05:08;;;;;;;;;;;;;;;4.71;100.00;92098.19;5069818;28;19924;-80
2021/12/10 06:07:35;;;;;;;;;;;;;;;4.73;100.00;92095.47;5069619;28;19966;-80
2021/12/10 06:10:02;;;;;;;;;;;;;;;4.73;100.00;92088.63;5069778;28;19993;-80
2021/12/10 06:12:28;;;;;;;;;;;;;;;4.75;100.00;92089.19;5069666;28;19928;-80
2021/12/10 06:14:55;;;;;;;;;;;;;;;4.80;100.00;92094.47;5069784;28;19946;-80
2021/12/10 06:17:22;;;;;;;;;;;;;;;4.86;100.00;92092.84;5071258;28;19931;-80
2021/12/10 06:19:48;;;;;;;;;;;;;;;4.86;100.00;92089.56;5074035;28;19952;-81
2021/12/10 06:22:16;;;;;;;;;;;;;;;4.85;100.00;92088.75;5073690;28;20404;-81
2021/12/10 06:24:43;;;;;;;;;;;;;;;4.88;100.00;92085.81;5073579;28;19925;-81
2021/12/10 06:27:10;;;;;;;;;;;;;;;4.85;100.00;92081.13;5073977;28;19928;-81
2021/12/10 06:29:41;;;;;;;;;;;;;;;4.87;100.00;92089.34;5073711;28;19928;-81
2021/12/10 06:32:08;;;;;;;;;;;;;;;4.85;100.00;92096.38;5073540;28;19931;-82
2021/12/10 06:34:34;;;;;;;;;;;;;;;4.79;100.00;92081.94;5073621;28;20398;-81
2021/12/10 06:37:01;;;;;;;;;;;;;;;4.83;100.00;92085.66;5073168;28;20375;-81
2021/12/10 06:39:29;;;;;;;;;;;;;;;4.85;100.00;92098.16;5073536;28;19928;-81
2021/12/10 06:41:56;;;;;;;;;;;;;;;4.85;100.00;92093.84;5073331;28;19928;-81
2021/12/10 06:44:23;;;;;;;;;;;;;;;4.91;100.00;92087.19;5073349;28;20291;-81
2021/12/10 06:46:50;;;;;;;;;;;;;;;4.93;100.00;92092.84;5073198;28;20383;-81
2021/12/10 06:49:17;;;;;;;;;;;;;;;4.95;100.00;92086.56;5068930;28;19935;-81
2021/12/10 06:51:44;;;;;;;;;;;;;;;4.97;100.00;92081.28;5071202;28;19928;-81
2021/12/10 06:54:11;;;;;;;;;;;;;;;4.99;100.00;92081.09;5072916;28;20272;-81
2021/12/10 06:56:39;;;;;;;;;;;;;;;4.96;100.00;92092.44;5073203;28;19925;-81
2021/12/10 06:59:07;;;;;;;;;;;;;;;4.94;100.00;92102.81;5073016;28;20330;-81
2021/12/10 07:01:36;;;;;;;;;;;;;;;4.95;100.00;92099.28;5073092;28;19925;-81
2021/12/10 07:04:04;;;;;;;;;;;;;;;4.97;100.00;92098.31;5072482;28;19967;-81
2021/12/10 07:06:32;;;;;;;;;;;;;;;4.96;100.00;92105.16;5072955;28;19929;-81
2021/12/10 07:08:59;;;;;;;;;;;;;;;4.98;100.00;92110.81;5072862;28;20400;-81
2021/12/10 07:11:27;;;;;;;;;;;;;;;5.03;100.00;92112.75;5072632;28;20378;-81
2021/12/10 07:13:56;;;;;;;;;;;;;;;5.05;100.00;92115.91;5073049;28;19947;-81
2021/12/10 07:16:23;;;;;;;;;;;;;;;5.11;100.00;92115.09;5072635;28;19928;-81
2021/12/10 07:18:50;;;;;;;;;;;;;;;5.13;100.00;92109.78;5072745;28;19935;-81
2021/12/10 07:21:16;;;;;;;;;;;;;;;5.17;100.00;92104.09;5072812;28;19971;-81
2021/12/10 07:23:43;;;;;;;;;;;;;;;5.27;100.00;92085.06;5072571;28;19928;-81
2021/12/10 07:26:10;;;;;;;;;;;;;;;5.35;100.00;92082.25;5072590;28;19929;-81
2021/12/10 07:28:37;;;;;;;;;;;;;;;5.40;100.00;92079.88;5071853;28;19924;-81
2021/12/10 07:31:05;;;;;;;;;;;;;;;5.41;100.00;92073.03;5072738;28;19924;-81
2021/12/10 07:33:32;;;;;;;;;;;;;;;5.47;100.00;92072.97;5072602;28;20424;-81
2021/12/10 07:35:59;;;;;;;;;;;;;;;5.52;100.00;92086.84;5072080;28;19928;-81
2021/12/10 07:38:26;;;;;;;;;;;;;;;5.51;100.00;92086.06;5072103;28;20424;-80
2021/12/10 07:40:52;;;;;;;;;;;;;;;5.58;100.00;92091.91;5072432;28;19925;-80
2021/12/10 07:43:20;;;;;;;;;;;;;;;5.61;100.00;92086.38;5071916;28;19928;-80
2021/12/10 07:45:47;;;;;;;;;;;;;;;5.69;100.00;92080.25;5072320;28;19924;-81
2021/12/10 07:48:18;;;;;;;;;;;;;;;5.75;100.00;92076.88;5072034;28;20445;-80
2021/12/10 07:50:50;;;;;;;;;;;;;;;5.79;100.00;92072.13;5071896;28;19925;-80
2021/12/10 07:53:19;;;;;;;;;;;;;;;5.84;100.00;92072.28;5071895;28;20027;-80
2021/12/10 07:55:45;;;;;;;;;;;;;;;5.87;100.00;92071.91;5071755;28;20007;-81
2021/12/10 07:58:12;;;;;;;;;;;;;;;5.92;100.00;92073.03;5072195;28;19970;-81
2021/12/10 08:00:40;;;;;;;;;;;;;;;5.97;100.00;92073.97;5072202;28;19929;-81
2021/12/10 08:03:06;;;;;;;;;;;;;;;6.06;100.00;92087.25;5072420;28;20273;-81
2021/12/10 08:05:35;;;;;;;;;;;;;;;6.11;100.00;92082.31;5071885;28;19929;-81
2021/12/10 08:08:02;;;;;;;;;;;;;;;6.15;100.00;92078.34;5071492;28;19924;-81
2021/12/10 08:10:29;;;;;;;;;;;;;;;6.23;100.00;92073.97;5071576;28;20295;-81
2021/12/10 08:12:55;;;;;;;;;;;;;;;6.39;100.00;92080.31;5071817;28;19924;-81
2021/12/10 08:15:22;;;;;;;;;;;;;;;6.47;100.00;92081.78;5071641;28;19981;-81
2021/12/10 08:17:48;;;;;;;;;;;;;;;6.56;100.00;92090.72;5071273;28;19924;-85
2021/12/10 08:20:18;;;;;;;;;;;;;;;6.60;100.00;92091.84;5071458;28;19924;-85
2021/12/10 08:22:47;;;;;;;;;;;;;;;6.70;100.00;92081.13;5071372;28;19954;-85
2021/12/10 08:25:14;;;;;;;;;;;;;;;6.75;100.00;92086.38;5071542;28;19925;-85
2021/12/10 08:27:41;;;;;;;;;;;;;;;6.81;100.00;92085.53;5071263;28;19936;-85
2021/12/10 08:30:09;;;;;;;;;;;;;;;6.85;100.00;92092.75;5071298;28;19931;-85
2021/12/10 08:32:36;;;;;;;;;;;;;;;6.85;100.00;92088.44;5071251;28;19925;-86
2021/12/10 08:35:04;;;;;;;;;;;;;;;6.91;100.00;92087.56;5070979;28;19931;-86
2021/12/10 08:37:31;;;;;;;;;;;;;;;6.97;100.00;92078.28;5070958;28;19932;-86
2021/12/10 08:39:59;;;;;;;;;;;;;;;7.03;100.00;92072.31;5069817;28;19935;-89
2021/12/10 08:42:26;;;;;;;;;;;;;;;7.08;100.00;92079.31;5070845;28;19925;-88
2021/12/10 08:44:53;;;;;;;;;;;;;;;7.14;100.00;92075.13;5070799;28;19924;-88
2021/12/10 08:47:19;;;;;;;;;;;;;;;7.17;100.00;92065.25;5070678;28;19936;-88
2021/12/10 08:49:46;;;;;;;;;;;;;;;7.17;100.00;92067.81;5070861;28;20306;-88
2021/12/10 08:52:15;;;;;;;;;;;;;;;7.21;100.00;92065.59;5070722;28;20492;-88
2021/12/10 08:54:43;;;;;;;;;;;;;;;7.20;100.00;92075.06;5070454;28;19928;-89
2021/12/10 08:57:17;;;;;;;;;;;;;;;7.19;100.00;92076.03;5070976;28;19929;-89
2021/12/10 08:59:44;;;;;;;;;;;;;;;7.21;100.00;92076.59;5066915;28;19932;-88
2021/12/10 09:02:12;;;;;;;;;;;;;;;7.24;100.00;92062.63;5068706;28;19924;-88
2021/12/10 09:04:39;;;;;;;;;;;;;;;7.19;100.00;92065.03;5070196;28;19924;-88
2021/12/10 09:07:07;;;;;;;;;;;;;;;7.20;100.00;92064.06;5070322;28;19935;-89
2021/12/10 09:09:35;;;;;;;;;;;;;;;7.21;100.00;92065.59;5070287;28;19928;-88
2021/12/10 09:12:02;;;;;;;;;;;;;;;7.20;100.00;92059.72;5070577;28;19931;-87
2021/12/10 09:14:36;;;;;;;;;;;;;;;7.30;100.00;92050.75;5070304;28;19932;-89
2021/12/10 09:17:03;;;;;;;;;;;;;;;7.30;100.00;92053.31;5069899;28;20379;-88
2021/12/10 09:19:30;;;;;;;;;;;;;;;7.33;100.00;92045.97;5070052;28;19983;-89
2021/12/10 09:21:57;;;;;;;;;;;;;;;7.36;100.00;92047.31;5069920;28;19932;-89
2021/12/10 09:24:24;;;;;;;;;;;;;;;7.34;100.00;92051.88;5070785;28;20159;-89
2021/12/10 09:26:54;;;;;;;;;;;;;;;7.37;100.00;92055.78;5070115;28;19928;-89
2021/12/10 09:29:21;;;;;;;;;;;;;;;7.43;100.00;92057.44;5069872;28;20448;-89
2021/12/10 09:31:51;;;;;;;;;;;;;;;7.55;100.00;92052.38;5069355;28;20135;-89
2021/12/10 09:34:18;;;;;;;;;;;;;;;7.56;100.00;92044.50;5070074;28;19924;-88
2021/12/10 09:36:47;;;;;;;;;;;;;;;7.59;100.00;92027.94;5070152;28;19935;-89
2021/12/10 09:39:17;;;;;;;;;;;;;;;7.67;100.00;92016.59;5069941;28;19924;-90
2021/12/10 09:41:44;;;;;;;;;;;;;;;7.70;100.00;92009.28;5070668;28;19933;-89
2021/12/10 09:44:11;;;;;;;;;;;;;;;7.71;100.00;92003.16;5070765;28;19931;-89
2021/12/10 09:46:39;;;;;;;;;;;;;;;7.82;100.00;92000.84;5070341;28;19931;-89
2021/12/10 09:49:10;;;;;;;;;;;;;;;7.84;100.00;91999.63;5070317;28;19924;-90
2021/12/10 09:51:39;;;;;;;;;;;;;;;7.89;100.00;92006.63;5070511;28;19925;-90
2021/12/10 09:54:11;;;;;;;;;;;;;;;7.96;100.00;92006.50;5069852;28;19949;-91
2021/12/10 09:59:55;;;;;;;;;;;;;;;7.95;100.00;92020.28;5009529;28;20407;-90
2021/12/10 10:02:22;;;;;;;;;;;;;;;7.96;100.00;92017.50;5008006;28;20388;-92
2021/12/10 10:04:52;;;;;;;;;;;;;;;7.97;100.00;92008.81;5043760;28;19931;-91
2021/12/10 10:07:20;;;;;;;;;;;;;;;8.00;100.00;92000.72;5069894;28;19955;-91
2021/12/10 10:09:49;;;;;;;;;;;;;;;8.02;100.00;91998.72;5069163;28;20379;-93
2021/12/10 10:12:20;;;;;;;;;;;;;;;8.09;100.00;92005.47;5070468;28;20038;-92
2021/12/10 10:14:49;;;;;;;;;;;;;;;8.07;100.00;91998.06;5070100;28;19928;-93
2021/12/10 10:17:16;;;;;;;;;;;;;;;8.12;100.00;91994.81;5070183;28;20359;-91
2021/12/10 10:19:43;;;;;;;;;;;;;;;8.21;100.00;92002.91;5070055;28;20322;-91
2021/12/10 10:22:13;;;;;;;;;;;;;;;8.25;100.00;91997.13;5069279;28;19929;-92
2021/12/10 10:24:39;;;;;;;;;;;;;;;8.25;100.00;91997.13;5069955;28;19928;-92
2021/12/10 10:27:08;;;;;;;;;;;;;;;8.30;100.00;91993.91;5070198;28;19925;-92
2021/12/10 10:29:42;;;;;;;;;;;;;;;8.37;100.00;91998.88;5069857;28;20031;-91
2021/12/10 10:32:17;;;;;;;;;;;;;;;8.37;100.00;91997.13;5070141;28;20375;-94
2021/12/10 10:34:45;;;;;;;;;;;;;;;8.37;100.00;91991.22;5070372;28;19959;-91
2021/12/10 10:37:13;;;;;;;;;;;;;;;8.45;100.00;91982.41;5070160;28;19931;-91
2021/12/10 10:39:42;;;;;;;;;;;;;;;8.42;100.00;91983.63;5069710;28;20363;-91
2021/12/10 10:42:11;;;;;;;;;;;;;;;8.44;100.00;91981.63;5070221;28;19924;-91
2021/12/10 10:44:39;;;;;;;;;;;;;;;8.45;100.00;91978.06;5069500;28;19929;-91
2021/12/10 10:47:05;;;;;;;;;;;;;;;8.39;100.00;91982.31;5069877;28;19979;-90
2021/12/10 10:49:41;;;;;;;;;;;;;;;8.37;100.00;91980.97;5070022;28;19924;-91
2021/12/10 10:52:19;;;;;;;;;;;;;;;8.32;100.00;91976.53;5069736;28;19935;-91
2021/12/10 10:54:47;;;;;;;;;;;;;;;8.31;100.00;91969.88;5069900;28;19929;-92
2021/12/10 10:57:18;;;;;;;;;;;;;;;8.35;100.00;91958.19;5070067;28;19928;-93
2021/12/10 10:59:46;;;;;;;;;;;;;;;8.33;100.00;91962.75;5069875;28;19928;-90
2021/12/10 11:02:13;;;;;;;;;;;;;;;8.36;100.00;91964.06;5070027;28;20294;-91
2021/12/10 11:04:40;;;;;;;;;;;;;;;8.39;100.00;91963.63;5072978;28;19936;-91
2021/12/10 11:07:10;;;;;;;;;;;;;;;8.36;100.00;91969.19;5072949;28;20015;-91
2021/12/10 11:09:43;;;;;;;;;;;;;;;8.40;100.00;91977.97;5072589;28;20016;-91
2021/12/10 11:12:14;;;;;;;;;;;;;;;8.48;100.00;91980.16;5072696;28;19928;-88
2021/12/10 11:14:42;;;;;;;;;;;;;;;8.53;100.00;91982.84;5073074;28;19954;-90
2021/12/10 11:17:10;;;;;;;;;;;;;;;8.49;100.00;91984.31;5072751;28;19925;-90
2021/12/10 11:19:37;;;;;;;;;;;;;;;8.55;100.00;91988.53;5072343;28;19929;-89
2021/12/10 11:22:09;;;;;;;;;;;;;;;8.57;100.00;91982.41;5072307;28;19925;-91
2021/12/10 11:24:38;;;;;;;;;;;;;;;8.51;100.00;91978.94;5072422;28;19936;-91
2021/12/10 11:27:09;;;;;;;;;;;;;;;8.52;100.00;91988.22;5072638;28;19973;-91
2021/12/10 11:29:47;;;;;;;;;;;;;;;8.49;100.00;91976.63;5073006;28;19929;-91
2021/12/10 11:38:08;;;;;;;;;;;;;;;8.51;100.00;91966.94;5074026;28;19935;-94
2021/12/10 11:40:50;;;;;;;;;;;;;;;8.53;100.00;91954.69;5073062;28;19928;-92
2021/12/10 11:43:44;;;;;;;;;;;;;;;8.58;100.00;91960.91;5059955;28;20011;-92
2021/12/10 11:46:30;;;;;;;;;;;;;;;8.57;100.00;91970.41;5072079;28;20027;-92
2021/12/10 11:49:02;;;;;;;;;;;;;;;8.55;100.00;91962.16;5072081;28;20558;-93
2021/12/10 11:51:30;;;;;;;;;;;;;;;8.52;100.00;91963.38;5072052;28;19947;-92
2021/12/10 11:53:59;;;;;;;;;;;;;;;8.51;100.00;91958.47;5072418;28;19934;-92
2021/12/10 11:56:27;;;;;;;;;;;;;;;8.43;100.00;91957.06;5072722;28;20780;-91
2021/12/10 11:59:10;;;;;;;;;;;;;;;8.51;100.00;91950.78;5072346;28;19925;-91
2021/12/10 12:01:45;;;;;;;;;;;;;;;8.58;100.00;91945.56;5072160;28;19931;-91
2021/12/10 12:04:20;;;;;;;;;;;;;;;8.57;100.00;91942.25;5072164;28;19924;-90
2021/12/10 12:06:49;;;;;;;;;;;;;;;8.59;100.00;91954.78;5071857;28;19980;-91
2021/12/10 12:09:29;;;;;;;;;;;;;;;8.53;100.00;91959.81;5071900;28;19924;-91
2021/12/10 12:12:07;;;;;;;;;;;;;;;8.57;100.00;91954.25;5071746;28;20315;-91
2021/12/10 12:14:37;;;;;;;;;;;;;;;8.43;100.00;91954.50;5057354;28;19932;-91
2021/12/10 12:17:06;;;;;;;;;;;;;;;8.45;100.00;91949.94;5055897;28;19932;-90
2021/12/10 12:19:35;;;;;;;;;;;;;;;8.40;100.00;91939.59;5066551;28;20427;-91
2021/12/10 12:27:29;;;;;;;;;;;;;;;8.33;100.00;91949.19;5066642;28;20489;-91
2021/12/10 12:30:04;;;;;;;;;;;;;;;8.33;100.00;91949.94;5066534;28;20474;-90
2021/12/10 12:32:33;;;;;;;;;;;;;;;8.29;100.00;91949.63;5067430;28;20302;-83
2021/12/10 12:41:18;;;;;;;;;;;;;;;8.42;100.00;91945.25;5071727;28;19978;-94
2021/12/10 12:47:36;;;;;;;;;;;;;;;8.37;100.00;91933.16;5064068;28;20386;-93
2021/12/10 12:50:14;;;;;;;;;;;;;;;8.29;100.00;91930.97;5067499;28;19930;-92
2021/12/10 12:52:51;;;;;;;;;;;;;;;8.24;100.00;91930.84;5065595;28;19933;-92
2021/12/10 12:55:41;;;;;;;;;;;;;;;8.14;100.00;91927.09;5066506;28;19924;-95
2021/12/10 12:58:34;;;;;;;;;;;;;;;8.06;100.00;91919.75;5065682;28;20386;-92
2021/12/10 13:01:26;;;;;;;;;;;;;;;8.03;100.00;91910.00;5066158;28;20288;-94
2021/12/10 13:04:04;;;;;;;;;;;;;;;7.96;100.00;91909.34;5064789;28;19931;-92
2021/12/10 13:19:16;;;;;;;;;;;;;;;7.68;100.00;91878.38;4911265;29;20039;-94
2021/12/10 13:21:43;;;;;;;;;;;;;;;7.61;100.00;91887.94;4960521;28;19934;-91
2021/12/10 13:24:36;;;;;;;;;;;;;;;7.58;100.00;91889.16;4967469;28;19937;-92
2021/12/10 13:27:17;;;;;;;;;;;;;;;7.56;100.00;91890.38;4907505;29;20013;-96
2021/12/10 13:30:30;;;;;;;;;;;;;;;;;;;;;
2021/12/10 13:32:57;;;;;;;;;;;;;;;7.53;100.00;91895.94;4898910;28;19927;-92
2021/12/10 13:35:28;;;;;;;;;;;;;;;7.58;100.00;91899.38;4980188;28;20016;-91
2021/12/10 13:37:56;;;;;;;;;;;;;;;7.59;100.00;91897.63;5016044;28;19924;-91
2021/12/10 13:40:23;;;;;;;;;;;;;;;7.62;100.00;91900.50;5065738;28;19960;-91